aviador You're here:

WBGS Decoded Metar

SIBU in MALAYSIA
Report Time2018-05-21 20:00:00
UTC Time2018-05-21 20:13:56
Flight Rules ifr IFR
WindVRB at 02 kt
Visibility4000 m
Phenomena:Mist
Clouds:Scattered 000 Hf
Broken 150 Hf
Expected CloudBase > 400 ft AGL from Temp-Dew spread
Ceiling15,000 ft
Temp24°C (ISA +9)
Dew Point23°C (94% RH)
QNH1008 hPa
Density Alt1,614 ft
Elevation26 ft
Report Wrong Elevation
Raw Report
WBGS 212000Z VRB02KT 4000 BR SCT000 BKN150 24/23 Q1008=

Extra information for WBGS:More info

Metar Taf Metar & Taf Last 4 Metars F.Rules Stats Wind Profile Meteogram Temp Stats Airport Information Weather charts Add Link Nearby VenuesMetar ALERT Operation Metar Decoded Social comments